Data for 10/12/2017

Time Sea-Level Adjusted Pressure Absolute Pressure Temperature Relative Humidity Dew Point   
(mb) (inHg) (mb) (inHg) (C) (F) (%) (C) (F)
00:05 1016 30 845 24.95 0.8 33.4 91 -0.5 31.1
00:10 1016 30 845 24.95 0.7 33.3 92 -0.5 31.1
00:15 1016 30 845 24.95 0.7 33.3 92 -0.5 31.1
00:20 1016 30 845 24.95 0.7 33.3 91 -0.5 31
00:25 1016 30 846 24.98 0.7 33.3 92 -0.5 31.2
00:30 1016 30 845 24.95 0.8 33.4 91 -0.5 31.2
00:35 1016 30 845 24.95 0.8 33.4 91 -0.5 31.2
00:40 1016 30 845 24.95 0.8 33.4 91 -0.5 31.1
00:45 1016 30 845 24.95 0.7 33.2 91 -0.6 30.9
00:50 1016 30 845 24.95 0.6 33 92 -0.7 30.8
00:55 1016 30 845 24.95 0.5 32.9 92 -0.7 30.7
01:00 1016 30 845 24.95 0.3 32.6 92 -0.8 30.6
01:05 1016 30 845 24.95 0.4 32.7 93 -0.7 30.8
01:10 1016 30 845 24.95 0.5 32.9 92 -0.6 30.9
01:15 1016 30 845 24.95 0.5 32.9 92 -0.7 30.8
01:20 1016 30 845 24.95 0.3 32.6 93 -0.7 30.7
01:25 1016 30 845 24.95 0.4 32.8 93 -0.6 30.9
01:30 1016 30 845 24.95 0.5 32.9 93 -0.6 31
01:35 1016 30 845 24.95 0.5 32.9 92 -0.6 30.9
01:40 1016 30 845 24.95 0.5 32.8 93 -0.6 30.9
01:45 1016 30 845 24.95 0.5 32.9 93 -0.6 30.9
01:50 1016 30 845 24.95 0.5 32.9 92 -0.6 30.9
01:55 1016 30 845 24.95 0.4 32.8 93 -0.6 30.9
02:00 1016 30 845 24.95 0.5 32.9 93 -0.5 31
02:05 1016 30 845 24.95 0.5 32.9 93 -0.5 31
02:10 1016 30 845 24.95 0.5 32.9 93 -0.6 30.9
02:15 1016 30 845 24.95 0.4 32.7 93 -0.7 30.8
02:20 1016 30 845 24.95 0.3 32.6 93 -0.7 30.8
02:25 1016 30 845 24.95 0.4 32.7 93 -0.6 30.9
02:30 1016 30 845 24.95 0.5 32.9 93 -0.5 31.2
02:35 1016 30 845 24.95 0.7 33.2 93 -0.4 31.4
02:40 1016 30 845 24.95 0.8 33.4 92 -0.4 31.4
02:45 1016 30 845 24.95 0.7 33.3 92 -0.4 31.2
02:50 1016 30 845 24.95 0.8 33.5 92 -0.4 31.3
02:55 1016 30 845 24.95 0.8 33.4 91 -0.4 31.2
03:00 1016 30 845 24.95 0.8 33.5 91 -0.5 31.2
03:05 1016 30 845 24.95 0.7 33.3 91 -0.5 31
03:10 1016 30 845 24.95 0.7 33.2 91 -0.6 31
03:15 1016 30 845 24.95 0.7 33.2 92 -0.5 31.1
03:20 1016 30 845 24.95 0.7 33.3 92 -0.4 31.2
03:25 1016 30 845 24.95 0.9 33.6 92 -0.3 31.4
03:30 1016 30 845 24.95 1 33.7 91 -0.3 31.5
03:35 1016 30 845 24.95 1 33.9 91 -0.3 31.5
03:40 1016 30 845 24.95 1.1 33.9 91 -0.2 31.6
03:45 1016 30 845 24.95 1.1 34 91 -0.3 31.5
03:50 1016 30 845 24.95 1.1 34 90 -0.3 31.4
03:55 1016 30 845 24.95 0.9 33.6 90 -0.5 31.1
04:00 1016 30 845 24.95 0.7 33.3 91 -0.6 30.9
04:05 1016 30 845 24.95 0.6 33.2 91 -0.6 30.9
04:10 1016 30 845 24.95 0.6 33 92 -0.6 30.9
04:15 1016 30 845 24.95 0.7 33.3 92 -0.5 31.2
04:20 1016 30 845 24.95 0.8 33.5 92 -0.4 31.3
04:25 1016 30 845 24.95 0.8 33.4 91 -0.5 31.1
04:30 1016 30 845 24.95 0.7 33.3 91 -0.5 31
04:35 1016 30 845 24.95 0.7 33.2 91 -0.6 30.8
04:40 1016 30 845 24.95 0.5 32.9 91 -0.7 30.7
04:45 1016 30 845 24.95 0.5 32.9 91 -0.7 30.7
04:50 1016 30 845 24.95 0.6 33 91 -0.7 30.8
04:55 1016 30 845 24.95 0.6 33 91 -0.7 30.7
05:00 1016 30 845 24.95 0.4 32.8 91 -0.9 30.4
05:05 1016 30 845 24.95 0.4 32.6 92 -0.9 30.4
05:10 1016 30 845 24.95 0.2 32.3 92 -1 30.2
05:15 1016 30 845 24.95 0 32.1 92 -1.1 30.1
05:20 1016 30 845 24.95 0.1 32.1 93 -1 30.2
05:25 1016 30 845 24.95 0.1 32.3 93 -0.9 30.4
05:30 1016 30 845 24.95 0.1 32.2 93 -0.9 30.3
05:35 1016 30 845 24.95 0 32 93 -1 30.2
05:40 1016 30 845 24.95 0 32 93 -1 30.3
05:45 1016 30 846 24.98 0.1 32.2 93 -0.8 30.5
05:50 1016 30 846 24.98 0.1 32.2 93 -0.9 30.4
05:55 1016 30 846 24.98 -0 32 93 -1 30.1
06:00 1016 30 846 24.98 -0.1 31.8 93 -1.1 30
06:05 1016 30 846 24.98 -0 31.9 93 -1 30.1
06:10 1016 30 846 24.98 -0.2 31.7 93 -1.2 29.8
06:15 1017 30.03 846 24.98 -0.3 31.5 93 -1.2 29.8
06:20 1017 30.03 846 24.98 -0.3 31.5 93 -1.2 29.8
06:25 1016 30 846 24.98 -0.2 31.6 93 -1.2 29.9
06:30 1016 30 846 24.98 -0.3 31.5 93 -1.2 29.8
06:35 1017 30.03 846 24.98 -0.3 31.4 94 -1.2 29.8
06:40 1017 30.03 846 24.98 -0.4 31.3 93 -1.3 29.6
06:45 1017 30.03 846 24.98 -0.3 31.5 94 -1.2 29.8
06:50 1017 30.03 846 24.98 -0.3 31.4 93 -1.3 29.7
06:55 1017 30.03 846 24.98 -0.4 31.3 93 -1.3 29.6
07:00 1017 30.03 846 24.98 -0.4 31.3 93 -1.3 29.6
07:05 1017 30.03 846 24.98 -0.4 31.3 93 -1.4 29.5
07:10 1017 30.03 846 24.98 -0.4 31.4 92 -1.5 29.3
07:15 1017 30.03 846 24.98 -0.3 31.4 90 -1.7 28.9
07:20 1017 30.03 846 24.98 -0.3 31.4 89 -1.9 28.6
07:25 1017 30.03 846 24.98 -0.4 31.3 90 -1.9 28.6
07:30 1017 30.03 846 24.98 -0.5 31.2 90 -2 28.5
07:35 1017 30.03 846 24.98 -0.5 31.1 90 -2 28.4
07:40 1017 30.03 846 24.98 -0.5 31 90 -2 28.4
07:45 1017 30.03 846 24.98 -0.6 30.9 89 -2.3 27.9
07:50 1017 30.03 846 24.98 -0.6 30.9 89 -2.2 28
07:55 1017 30.03 847 25.01 -0.6 30.8 89 -2.2 28
08:00 1017 30.03 847 25.01 -0.8 30.6 90 -2.3 27.9
08:05 1018 30.06 847 25.01 -0.7 30.8 89 -2.2 28
08:10 1018 30.06 847 25.01 -0.7 30.7 90 -2.2 28.1
08:15 1018 30.06 847 25.01 -0.8 30.6 91 -2.1 28.3
08:20 1018 30.06 847 25.01 -0.6 30.9 91 -1.9 28.6
08:25 1018 30.06 847 25.01 -0.5 31 91 -1.8 28.7
08:30 1018 30.06 847 25.01 -0.5 31.1 91 -1.8 28.8
08:35 1018 30.06 847 25.01 -0.3 31.5 91 -1.6 29.2
08:40 1018 30.06 847 25.01 -0.2 31.6 91 -1.5 29.2
08:45 1018 30.06 847 25.01 0 32 90 -1.4 29.4
08:50 1018 30.06 847 25.01 0.3 32.5 88 -1.4 29.4
08:55 1018 30.06 847 25.01 0.5 32.9 88 -1.3 29.7
09:00 1018 30.06 847 25.01 0.8 33.5 85 -1.4 29.5
09:05 1018 30.06 847 25.01 1.1 34 84 -1.3 29.7
09:10 1018 30.06 847 25.01 1.4 34.5 82 -1.4 29.5
09:15 1018 30.06 847 25.01 1.2 34.2 84 -1.2 29.9
09:20 1018 30.06 847 25.01 0.9 33.7 85 -1.4 29.6
09:25 1018 30.06 847 25.01 1.1 33.9 84 -1.3 29.7
09:30 1018 30.06 847 25.01 1.5 34.7 83 -1.1 30
09:35 1018 30.06 847 25.01 1.8 35.3 81 -1.1 30
09:40 1018 30.06 847 25.01 2 35.6 81 -0.9 30.4
09:45 1018 30.06 847 25.01 2.1 35.8 81 -0.8 30.5
09:50 1018 30.06 847 25.01 2.1 35.8 82 -0.7 30.8
09:55 1018 30.06 847 25.01 2.1 35.7 83 -0.5 31.1
10:00 1018 30.06 848 25.04 1.8 35.2 82 -0.9 30.3
10:05 1019 30.09 848 25.04 1.1 34.1 83 -1.4 29.5
10:10 1019 30.09 848 25.04 0.6 33 87 -1.4 29.5
10:15 1019 30.09 848 25.04 0.2 32.3 90 -1.3 29.7
10:20 1019 30.09 848 25.04 0.1 32.2 91 -1.1 29.9
10:25 1019 30.09 848 25.04 0.3 32.5 91 -1 30.2
10:30 1019 30.09 848 25.04 0.5 32.8 91 -0.9 30.4
10:35 1019 30.09 848 25.04 0.6 33 90 -0.9 30.4
10:40 1019 30.09 848 25.04 0.7 33.2 90 -0.8 30.5
10:45 1019 30.09 848 25.04 0.6 33.1 89 -1 30.3
10:50 1019 30.09 848 25.04 0.6 33.1 90 -0.9 30.3
10:55 1019 30.09 848 25.04 0.5 33 89 -1.1 30.1
11:00 1019 30.09 848 25.04 0.5 32.9 89 -1.1 30.1
11:05 1019 30.09 848 25.04 0.4 32.8 90 -1.1 30.1
11:10 1019 30.09 848 25.04 0.3 32.5 90 -1.2 29.9
11:15 1019 30.09 848 25.04 0.2 32.3 91 -1.1 30
11:20 1019 30.09 848 25.04 0.2 32.4 91 -1.1 30
11:25 1019 30.09 848 25.04 0.3 32.6 91 -1 30.1
11:30 1019 30.09 849 25.07 0.6 33 90 -0.9 30.5
11:35 1019 30.09 849 25.07 0.8 33.5 88 -0.9 30.3
11:40 1019 30.09 849 25.07 0.5 32.8 88 -1.2 29.8
11:45 1019 30.09 849 25.07 0.5 32.8 88 -1.2 29.8
11:50 1019 30.09 849 25.07 0.7 33.2 87 -1.2 29.8
11:55 1019 30.09 849 25.07 0.9 33.5 86 -1.3 29.7
12:00 1019 30.09 849 25.07 0.9 33.6 85 -1.3 29.6
12:05 1019 30.09 849 25.07 1.1 34 85 -1.2 29.8
12:10 1019 30.09 849 25.07 1 33.9 84 -1.4 29.5
12:15 1019 30.09 848 25.04 1.3 34.4 84 -1.1 30
12:20 1019 30.09 848 25.04 1.5 34.7 83 -1.1 30
12:25 1019 30.09 848 25.04 1.6 34.8 85 -0.7 30.7
12:30 1019 30.09 848 25.04 1.5 34.8 83 -1 30.2
12:35 1019 30.09 848 25.04 1.7 35 82 -1 30.2
12:40 1019 30.09 848 25.04 2 35.5 82 -0.7 30.7
12:45 1019 30.09 848 25.04 2 35.6 82 -0.7 30.7
12:50 1019 30.09 848 25.04 1.9 35.4 83 -0.7 30.8
12:55 1019 30.09 848 25.04 2.2 35.9 79 -1 30.1
13:00 1019 30.09 848 25.04 2.5 36.5 80 -0.7 30.8
13:05 1019 30.09 848 25.04 3.5 38.3 71 -1.3 29.6
13:10 1019 30.09 848 25.04 3.5 38.3 73 -1 30.3
13:15 1019 30.09 848 25.04 3.1 37.6 74 -1 30.1
13:20 1019 30.09 848 25.04 2.9 37.2 74 -1.3 29.6
13:25 1019 30.09 848 25.04 2.9 37.2 75 -1 30.1
13:30 1019 30.09 848 25.04 3.3 37.9 74 -0.9 30.4
13:35 1019 30.09 848 25.04 4.3 39.8 68 -1.1 30
13:40 1019 30.09 848 25.04 5.2 41.3 66 -0.6 30.9
13:45 1019 30.09 848 25.04 5.7 42.3 65 -0.2 31.6
13:50 1019 30.09 848 25.04 6.5 43.6 60 -0.7 30.8
13:55 1019 30.09 848 25.04 6.6 43.9 59 -0.8 30.6
14:00 1018 30.06 848 25.04 7.1 44.7 51 -2.3 27.8
14:05 1018 30.06 848 25.04 7.1 44.8 54 -1.6 29
14:10 1018 30.06 848 25.04 7.2 44.9 52 -1.9 28.5
14:15 1018 30.06 847 25.01 7 44.6 52 -2.2 28
14:20 1018 30.06 847 25.01 6.7 44 52 -2.6 27.4
14:25 1018 30.06 847 25.01 6 42.8 54 -2.5 27.4
14:30 1018 30.06 847 25.01 6.3 43.3 48 -3.8 25.2
14:35 1018 30.06 847 25.01 7.1 44.8 50 -2.6 27.3
14:40 1018 30.06 847 25.01 7.7 45.9 50 -2.2 28.1
14:45 1018 30.06 847 25.01 7.8 46.1 46 -3.2 26.2
14:50 1018 30.06 847 25.01 7.6 45.6 45 -3.5 25.8
14:55 1018 30.06 847 25.01 7.4 45.4 47 -3.2 26.3
15:00 1018 30.06 847 25.01 7.2 44.9 44 -4.3 24.3
15:05 1018 30.06 847 25.01 6.4 43.6 44 -5 23
15:10 1018 30.06 847 25.01 6.7 44 43 -5.2 22.7
15:15 1018 30.06 847 25.01 7.6 45.6 41 -4.7 23.5
15:20 1018 30.06 847 25.01 8.2 46.8 39 -4.8 23.3
15:25 1018 30.06 847 25.01 7.8 46 38 -5.6 21.9
15:30 1018 30.06 847 25.01 7.6 45.7 39 -5.4 22.3
15:35 1018 30.06 847 25.01 8.1 46.6 38 -5.3 22.4
15:40 1018 30.06 847 25.01 7.5 45.6 41 -4.9 23.2
15:45 1018 30.06 847 25.01 7.4 45.4 32 -8.1 17.4
15:50 1018 30.06 847 25.01 7.5 45.6 33 -7.9 17.8
15:55 1018 30.06 847 25.01 7.3 45.1 31 -8.9 16
16:00 1018 30.06 847 25.01 6.9 44.5 33 -8.3 17.1
16:05 1018 30.06 847 25.01 7.2 44.9 34 -7.8 18
16:10 1018 30.06 847 25.01 7.2 45 32 -8.5 16.6
16:15 1018 30.06 847 25.01 7.3 45.1 35 -7.3 18.8
16:20 1018 30.06 847 25.01 7.1 44.8 42 -4.9 23.2
16:25 1018 30.06 847 25.01 6.6 43.8 41 -5.7 21.8
16:30 1018 30.06 847 25.01 6.9 44.5 42 -5.2 22.7
16:35 1018 30.06 847 25.01 6.7 44.1 41 -5.6 21.9
16:40 1018 30.06 847 25.01 7.2 44.9 39 -5.8 21.5
16:45 1018 30.06 847 25.01 7.2 45 41 -5.2 22.7
16:50 1018 30.06 847 25.01 7.2 45 40 -5.3 22.4
16:55 1018 30.06 847 25.01 7.1 44.8 42 -5 22.9
17:00 1018 30.06 847 25.01 6.7 44 42 -5.2 22.6
17:05 1018 30.06 847 25.01 5.8 42.5 46 -4.8 23.3
17:10 1018 30.06 847 25.01 5.7 42.2 45 -5.2 22.7
17:15 1018 30.06 847 25.01 5.8 42.5 45 -5.2 22.7
17:20 1018 30.06 847 25.01 6.3 43.4 44 -5.1 22.8
17:25 1018 30.06 847 25.01 6.2 43.2 45 -4.9 23.2
17:30 1018 30.06 847 25.01 5.8 42.4 46 -5 22.9
17:35 1018 30.06 847 25.01 5.6 42 46 -5.2 22.6
17:40 1018 30.06 847 25.01 5.5 41.9 45 -5.5 22.1
17:45 1018 30.06 847 25.01 5.5 41.9 44 -5.7 21.8
17:50 1018 30.06 847 25.01 5.4 41.7 44 -5.9 21.4
17:55 1018 30.06 847 25.01 5.3 41.6 44 -5.9 21.4
18:00 1018 30.06 847 25.01 5.3 41.6 45 -5.6 22
18:05 1018 30.06 847 25.01 5.4 41.7 45 -5.5 22.1
18:10 1018 30.06 847 25.01 5.3 41.6 47 -5.1 22.8
18:15 1018 30.06 847 25.01 5.4 41.7 47 -5.1 22.8
18:20 1018 30.06 847 25.01 5.3 41.6 48 -4.8 23.3
18:25 1018 30.06 847 25.01 5.4 41.7 47 -4.9 23.1
18:30 1018 30.06 847 25.01 5.3 41.5 48 -4.9 23.2
18:35 1018 30.06 847 25.01 5.1 41.2 49 -4.6 23.7
18:40 1018 30.06 847 25.01 5 41 51 -4.3 24.3
18:45 1018 30.06 847 25.01 4.9 40.8 57 -3 26.7
18:50 1018 30.06 847 25.01 4.6 40.4 58 -2.8 27
18:55 1018 30.06 847 25.01 4.3 39.8 66 -1.4 29.4
19:00 1018 30.06 847 25.01 3.9 39 68 -1.4 29.5
19:05 1018 30.06 847 25.01 3.7 38.6 70 -1.4 29.6
19:10 1018 30.06 847 25.01 3.4 38.2 71 -1.3 29.6
19:15 1018 30.06 847 25.01 3.3 38 70 -1.6 29.2
19:20 1018 30.06 847 25.01 3.3 37.9 71 -1.6 29.2
19:25 1018 30.06 847 25.01 3.2 37.8 71 -1.5 29.3
19:30 1018 30.06 847 25.01 3.1 37.6 72 -1.5 29.4
19:35 1018 30.06 847 25.01 3 37.5 71 -1.7 28.9
19:40 1018 30.06 847 25.01 3 37.3 70 -1.9 28.5
19:45 1018 30.06 847 25.01 2.8 37 72 -1.7 28.9
19:50 1018 30.06 847 25.01 2.7 36.8 75 -1.3 29.6
19:55 1018 30.06 847 25.01 2.4 36.4 77 -1.2 29.8
20:00 1018 30.06 847 25.01 2.1 35.9 75 -1.8 28.8
20:05 1018 30.06 847 25.01 2.1 35.8 73 -2.2 28
20:10 1018 30.06 847 25.01 2.1 35.8 72 -2.4 27.7
20:15 1018 30.06 847 25.01 2 35.5 73 -2.3 27.9
20:20 1018 30.06 847 25.01 1.8 35.2 73 -2.6 27.2
20:25 1018 30.06 847 25.01 1.7 35.1 73 -2.6 27.3
20:30 1018 30.06 847 25.01 1.7 35 70 -3.3 26.1
20:35 1018 30.06 847 25.01 1.7 35.1 72 -2.8 27
20:40 1018 30.06 847 25.01 1.6 34.8 69 -3.5 25.7
20:45 1018 30.06 847 25.01 1.6 34.9 70 -3.3 26.1
20:50 1018 30.06 847 25.01 1.4 34.6 70 -3.4 25.8
20:55 1018 30.06 847 25.01 1.4 34.4 70 -3.5 25.6
21:00 1018 30.06 847 25.01 1.2 34.2 68 -4 24.8
21:05 1018 30.06 847 25.01 1.3 34.3 65 -4.6 23.8
21:10 1018 30.06 847 25.01 1.6 34.8 63 -4.7 23.5
21:15 1018 30.06 847 25.01 1.7 35 61 -5 22.9
21:20 1018 30.06 847 25.01 1.7 35 66 -4.1 24.7
21:25 1018 30.06 847 25.01 1.8 35.2 61 -4.9 23.2
21:30 1018 30.06 847 25.01 1.9 35.5 61 -4.9 23.2
21:35 1018 30.06 847 25.01 1.9 35.4 63 -4.5 23.9
21:40 1018 30.06 847 25.01 1.6 34.8 63 -4.7 23.6
21:45 1018 30.06 847 25.01 1.8 35.3 61 -4.9 23.2
21:50 1018 30.06 847 25.01 1.7 35.1 57 -5.9 21.3
21:55 1018 30.06 847 25.01 1.6 34.8 64 -4.6 23.8
22:00 1018 30.06 847 25.01 1.2 34.2 64 -4.8 23.3
22:05 1018 30.06 847 25.01 1.7 35 58 -5.7 21.7
22:10 1018 30.06 847 25.01 1.5 34.7 64 -4.5 24
22:15 1018 30.06 847 25.01 1 33.9 64 -5 23
22:20 1018 30.06 847 25.01 1 33.9 64 -5 22.9
22:25 1018 30.06 847 25.01 1 33.8 64 -5.1 22.8
22:30 1018 30.06 847 25.01 1 33.9 64 -5.1 22.8
22:35 1018 30.06 847 25.01 1 33.7 62 -5.4 22.2
22:40 1018 30.06 847 25.01 0.9 33.7 64 -5.1 22.8
22:45 1018 30.06 847 25.01 0.6 33.2 66 -4.9 23.2
22:50 1018 30.06 847 25.01 0.5 33 65 -5.3 22.4
22:55 1018 30.06 847 25.01 0.7 33.2 64 -5.4 22.3
23:00 1018 30.06 847 25.01 0.8 33.4 62 -5.6 21.9
23:05 1018 30.06 847 25.01 0.9 33.6 63 -5.4 22.2
23:10 1018 30.06 847 25.01 0.9 33.5 61 -5.7 21.7
23:15 1018 30.06 847 25.01 0.9 33.6 60 -6 21.3
23:20 1018 30.06 847 25.01 0.9 33.7 60 -5.9 21.4
23:25 1018 30.06 847 25.01 0.9 33.6 61 -5.9 21.3
23:30 1018 30.06 847 25.01 0.8 33.5 61 -5.8 21.5
23:35 1018 30.06 847 25.01 0.8 33.5 61 -5.9 21.4
23:40 1018 30.06 847 25.01 0.7 33.3 61 -5.9 21.3
23:45 1017 30.03 847 25.01 0.8 33.4 59 -6.3 20.7
23:50 1017 30.03 847 25.01 1 33.8 57 -6.7 20
23:55 1017 30.03 847 25.01 1.1 34 57 -6.4 20.5
24:00 1017 30.03 847 25.01 1.1 34 58 -6.3 20.7